TRINITY LAKE (CLE)

Elevation: 2370' · TRINITY R basin · Operator: US Bureau of Reclamation

Provisional data, subject to change.
Query executed Wednesday at 14:32:47   clock

Select a sensor type for a plot of data.
Note: Reservoir Flows are daily averages.

Earlier

Date RES ELE    STORAGE    RES CHG    OUTFLOW    INFLOW    EVAP    FNF    RIV REL    PPT INC    SPILL    DIS PWR   
 FEET   AF   AF   CFS   CFS   CFS   CFS   CFS   INCHES   CFS   CFS  
07/25/2016 2272.92 1167406 -2392 1634 571 143 479 e 0 0.00 0 1634
07/26/2016 2272.65 1164727 -2679 1633 387 105 479 e 0 0.00 0 1633
07/27/2016 2272.43 1162544 -2183 1454 452 99 452 0 0.00 0 1454
07/28/2016 2272.11 1159369 -3175 1873 368 96 368 0 0.00 0 1873
07/29/2016 2271.83 1156601 -2768 1618 332 110 332 0 0.00 0 1618
07/30/2016 2271.58 1154136 -2465 1423 282 102 162 e 0 0.00 0 1423
07/31/2016 2271.23 1150686 -3450 1711 94 122 94 e 0 0.00 0 1711
08/01/2016 2270.91 1147536 -3150 1581 42 49 94 e 0 0.00 0 1581
08/02/2016 2270.59 1144402 -3134 1447 -47 86 86 e 0 0.00 0 1447
08/03/2016 2270.28 1141366 -3036 1628 189 92 86 e 0 0.00 0 1628
08/04/2016 2270.00 1138623 -2743 1527 236 92 86 e 0 0.00 0 1527
08/05/2016 2269.73 1135995 -2628 1256 26 95 94 e 0 0.00 0 1256
08/06/2016 2269.46 1133367 -2628 1209 -33 83 131 e 0 0.00 0 1209
08/07/2016 2269.15 1130350 -3017 1420 5 106 131 e 0 0.00 0 1420
08/08/2016 2268.88 1127729 -2621 1325 55 51 155 e 0 0.00 0 1325
08/09/2016 2268.67 1125698 -2031 1091 150 83 150 0 0.00 0 1091
08/10/2016 2268.37 1122797 -2901 1713 344 94 175 e 0 0.00 0 1713
08/11/2016 2268.13 1120475 -2322 1371 260 60 260 e 0 0.00 0 1371
08/12/2016 2267.87 1117969 -2506 1431 247 79 247 0 0.00 0 1431
08/13/2016 2267.62 1115566 -2403 1370 247 88 247 0 0.00 0 1370
08/14/2016 2267.36 1113067 -2499 1358 203 105 203 0 0.00 0 1358
08/15/2016 2267.13 1110856 -2211 1179 163 99 163 0 0.00 0 1179
08/16/2016 2266.87 1108366 -2490 1425 252 82 252 0 0.00 0 1425
08/17/2016 2266.61 1105883 -2483 1444 276 84 276 0 0.00 0 1444
08/18/2016 2266.36 1103495 -2388 1359 248 93 248 0 0.00 0 1359
08/19/2016 2266.07 1100726 -2769 1474 165 87 165 0 0.00 0 1474
08/20/2016 2265.77 1097874 -2852 1457 108 89 108 0 0.00 0 1457
08/21/2016 2265.44 1094743 -3131 1583 96 92 30 e 0 0.00 0 1583
08/22/2016 2265.07 1091231 -3512 1659 -37 75 29 e 0 0.00 0 1659
08/23/2016 2264.66 1087361 -3870 1848 -14 89 -- 0 0.00 0 1848
08/24/2016 -- -- -- -- -- -- -- -- -- -- --

Later | Latest

Warning! This data is preliminary and subject to revision.

Show CLE Map | Plot CLE Data | 1 Month CLE Data | Real-Time CLE Data | CLE Info